Decoded Metar for K4MR (Melrose Gunnery Range in NM, United States) (IATA:N/A) | Meteo·Mobile Aviation Weather
aviador You're here:

K4MR Decoded Metar

Melrose Gunnery Range in NM, United States
Report Time2018-08-22 04:58:00
UTC Time2018-08-22 05:38:07
Flight Rules vfr VFR
Wind180° at 08 kt
W.Rank180° ranks 10
Current wind is below 180° avg. (9.4)
Visibility9999 m
Phenomena:N/A
Clouds:N/A
Expected CloudBase > 2,800 ft AGL from Temp-Dew spread
CeilingNone
Temp23°C
Dew Point16°C (65% RH)
AAT22.1°C
QNH1025 hPa
Raw Report
METAR K4MR 220458Z AUTO 18008KT 10SM CLR 23/16 A3028 RMK AO2 LTG DSNT
NE SLP192 T02260164 $=

Extra information for K4MR:More info

Metar Taf Metar & Taf Last 4 Metars F.Rules Stats Wind Profile Meteogram Temp Stats Airport Information Weather charts Add Link Nearby VenuesMetar ALERT Operation Metar Decoded Social comments